createdAt,value
2023-03-06T00:00:58.839Z,66.56
2023-03-06T00:02:30.447Z,66.59
2023-03-06T00:04:02.179Z,66.77
2023-03-06T00:05:33.831Z,67.10
2023-03-06T00:07:05.658Z,67.21
2023-03-06T00:08:37.283Z,67.45
2023-03-06T00:10:13.178Z,67.37
2023-03-06T00:11:44.761Z,67.62
2023-03-06T00:13:19.160Z,67.78
2023-03-06T00:14:50.805Z,67.91
2023-03-06T00:16:23.174Z,68.09
2023-03-06T00:17:55.261Z,67.94
2023-03-06T00:19:27.489Z,67.64
2023-03-06T00:20:59.155Z,67.28
2023-03-06T00:22:30.805Z,67.31
2023-03-06T00:24:02.393Z,67.40
2023-03-06T00:25:39.007Z,67.41
2023-03-06T00:27:10.706Z,67.84
2023-03-06T00:28:42.280Z,68.13
2023-03-06T00:30:15.600Z,68.02
2023-03-06T00:31:48.002Z,68.17
2023-03-06T00:33:19.667Z,68.12
2023-03-06T00:34:51.900Z,67.99
2023-03-06T00:36:23.556Z,67.75
2023-03-06T00:37:55.152Z,67.88
2023-03-06T00:39:26.854Z,67.67
2023-03-06T00:41:00.042Z,68.39
2023-03-06T00:42:33.370Z,68.78
2023-03-06T00:44:05.230Z,68.98
2023-03-06T00:45:37.002Z,68.88
2023-03-06T00:47:08.899Z,69.32
2023-03-06T00:48:40.420Z,69.57
2023-03-06T00:50:12.246Z,69.48
2023-03-06T00:51:43.810Z,69.21
2023-03-06T00:53:15.600Z,69.22
2023-03-06T00:54:47.211Z,68.61
2023-03-06T00:56:20.365Z,68.82
2023-03-06T00:57:52.778Z,68.55
2023-03-06T00:59:24.671Z,68.61
2023-03-06T01:00:57.519Z,68.57
2023-03-06T01:02:29.180Z,68.54
2023-03-06T01:04:00.899Z,68.91
2023-03-06T01:05:34.267Z,68.76
2023-03-06T01:07:05.822Z,69.10
2023-03-06T01:08:37.548Z,69.68
2023-03-06T01:10:09.990Z,69.95
2023-03-06T01:11:43.256Z,69.90
2023-03-06T01:13:15.856Z,69.98
2023-03-06T01:14:47.475Z,69.92
2023-03-06T01:16:19.797Z,70.01
2023-03-06T01:17:54.372Z,70.02
2023-03-06T01:19:26.188Z,70.15
2023-03-06T01:20:57.797Z,70.66
2023-03-06T01:22:29.670Z,70.44
2023-03-06T01:24:01.245Z,70.47
2023-03-06T01:25:32.812Z,70.65
2023-03-06T01:27:05.825Z,70.93
2023-03-06T01:28:37.792Z,70.75
2023-03-06T01:30:09.926Z,70.76
2023-03-06T01:31:42.754Z,70.45
2023-03-06T01:33:14.469Z,70.63
2023-03-06T01:34:46.043Z,70.70
2023-03-06T01:36:17.731Z,70.71
2023-03-06T01:37:50.170Z,70.52
2023-03-06T01:39:22.109Z,70.35
2023-03-06T01:40:55.007Z,70.74
2023-03-06T01:42:28.057Z,70.71
2023-03-06T01:43:59.629Z,70.92
2023-03-06T01:45:49.621Z,70.73
2023-03-06T01:47:21.259Z,71.10
2023-03-06T01:48:54.846Z,70.79
2023-03-06T01:50:26.510Z,71.07
2023-03-06T01:52:00.610Z,70.74
2023-03-06T01:53:32.378Z,70.67
2023-03-06T01:55:06.106Z,70.75
2023-03-06T01:56:39.011Z,70.38
2023-03-06T01:58:14.078Z,70.60
2023-03-06T01:59:47.913Z,70.44
2023-03-06T02:01:19.775Z,70.20
2023-03-06T02:02:53.805Z,70.22
2023-03-06T02:04:25.428Z,69.98
2023-03-06T02:05:58.804Z,70.49
2023-03-06T02:07:30.793Z,70.18
2023-03-06T02:09:04.388Z,70.32
2023-03-06T02:10:36.037Z,69.98
2023-03-06T02:12:09.456Z,69.83
2023-03-06T02:13:43.174Z,69.66
2023-03-06T02:15:16.085Z,70.23
2023-03-06T02:16:47.953Z,70.58
2023-03-06T02:18:19.579Z,70.54
2023-03-06T02:19:55.571Z,70.45
2023-03-06T02:21:28.649Z,70.75
2023-03-06T02:23:04.140Z,70.63
2023-03-06T02:24:39.914Z,70.89
2023-03-06T02:26:13.614Z,70.85
2023-03-06T02:27:45.230Z,71.03
2023-03-06T02:29:20.272Z,70.87
2023-03-06T02:30:52.854Z,70.59
2023-03-06T02:32:24.455Z,70.49
2023-03-06T02:34:03.245Z,70.52
2023-03-06T02:35:35.548Z,70.99
2023-03-06T02:37:09.084Z,70.81
2023-03-06T02:38:44.040Z,70.78
2023-03-06T02:40:17.392Z,70.65
2023-03-06T02:41:50.486Z,70.45
2023-03-06T02:43:25.772Z,70.48
2023-03-06T02:44:59.217Z,70.58
2023-03-06T02:46:30.912Z,70.16
2023-03-06T02:48:03.105Z,70.03
2023-03-06T02:49:34.716Z,70.07
2023-03-06T02:51:06.363Z,70.12
2023-03-06T02:52:37.969Z,70.19
2023-03-06T02:54:09.788Z,70.13
2023-03-06T02:55:41.408Z,70.44
2023-03-06T02:57:16.114Z,70.60
2023-03-06T02:58:47.910Z,70.59
2023-03-06T03:00:20.114Z,70.58
2023-03-06T03:01:51.816Z,70.57
2023-03-06T03:03:23.499Z,70.64
2023-03-06T03:04:57.897Z,70.71
2023-03-06T03:06:30.053Z,70.45
2023-03-06T03:08:02.154Z,70.80
2023-03-06T03:09:37.249Z,70.98
2023-03-06T03:11:09.378Z,71.17
2023-03-06T03:12:50.504Z,71.25
2023-03-06T03:14:24.230Z,71.41
2023-03-06T03:15:59.856Z,71.15
2023-03-06T03:17:31.559Z,71.16
2023-03-06T03:19:03.241Z,71.32
2023-03-06T03:20:35.956Z,71.42
2023-03-06T03:22:07.922Z,71.18
2023-03-06T03:23:39.556Z,71.21
2023-03-06T03:25:11.324Z,71.52
2023-03-06T03:26:42.935Z,71.55
2023-03-06T03:28:20.526Z,71.38
2023-03-06T03:29:56.705Z,70.94
2023-03-06T03:31:28.612Z,70.87
2023-03-06T03:33:00.417Z,70.82
2023-03-06T03:34:32.174Z,70.86
2023-03-06T03:36:05.609Z,70.83
2023-03-06T03:37:38.825Z,70.66
2023-03-06T03:39:10.603Z,70.73
2023-03-06T03:40:42.591Z,70.69
2023-03-06T03:42:14.305Z,70.70
2023-03-06T03:43:47.316Z,71.08
2023-03-06T03:45:19.008Z,70.89
2023-03-06T03:46:50.737Z,70.48
2023-03-06T03:48:25.929Z,70.51
2023-03-06T03:49:57.684Z,70.63
2023-03-06T03:51:29.910Z,70.52
2023-03-06T03:53:03.418Z,70.46
2023-03-06T03:54:35.244Z,69.91
2023-03-06T03:56:07.096Z,69.63
2023-03-06T03:57:44.615Z,70.02
2023-03-06T03:59:18.458Z,69.86
2023-03-06T04:01:09.098Z,69.54
2023-03-06T04:02:42.509Z,69.92
2023-03-06T04:04:21.647Z,69.64
2023-03-06T04:05:57.942Z,69.50
2023-03-06T04:07:30.368Z,69.82
2023-03-06T04:09:02.097Z,69.68
2023-03-06T04:10:34.437Z,69.37
2023-03-06T04:12:07.843Z,68.92
2023-03-06T04:13:41.227Z,68.93
2023-03-06T04:15:14.169Z,68.77
2023-03-06T04:16:46.021Z,68.91
2023-03-06T04:18:17.807Z,69.13
2023-03-06T04:19:50.221Z,68.92
2023-03-06T04:21:22.107Z,68.46
2023-03-06T04:22:53.704Z,68.35
2023-03-06T04:24:26.182Z,68.24
2023-03-06T04:25:57.829Z,68.07
2023-03-06T04:27:29.426Z,68.26
2023-03-06T04:29:00.976Z,68.34
2023-03-06T04:30:35.003Z,68.41
2023-03-06T04:32:14.478Z,68.48
2023-03-06T04:33:46.094Z,68.17
2023-03-06T04:35:18.079Z,68.01
2023-03-06T04:36:58.760Z,67.97
2023-03-06T04:38:31.017Z,67.92
2023-03-06T04:40:02.725Z,68.19
2023-03-06T04:41:35.106Z,68.54
2023-03-06T04:43:06.825Z,68.57
2023-03-06T04:44:38.781Z,69.04
2023-03-06T04:46:12.064Z,69.38
2023-03-06T04:47:43.626Z,69.40
2023-03-06T04:49:15.264Z,69.52
2023-03-06T04:50:46.885Z,69.61
2023-03-06T04:52:18.435Z,69.45
2023-03-06T04:53:50.149Z,69.54
2023-03-06T04:55:22.527Z,69.55
2023-03-06T04:56:54.187Z,69.62
2023-03-06T04:58:25.920Z,69.91
2023-03-06T04:59:57.603Z,69.49
2023-03-06T05:01:30.528Z,69.70
2023-03-06T05:03:02.580Z,69.64
2023-03-06T05:04:34.174Z,69.25
2023-03-06T05:06:06.037Z,69.14
2023-03-06T05:07:38.088Z,69.41
2023-03-06T05:09:09.695Z,69.21
2023-03-06T05:10:41.399Z,69.47
2023-03-06T05:12:13.007Z,69.58
2023-03-06T05:13:44.608Z,69.71
2023-03-06T05:15:16.437Z,69.49
2023-03-06T05:16:50.904Z,69.02
2023-03-06T05:18:22.528Z,69.23
2023-03-06T05:19:54.136Z,69.05
2023-03-06T05:21:25.703Z,68.97
2023-03-06T05:22:57.341Z,68.96
2023-03-06T05:24:28.995Z,69.08
2023-03-06T05:26:00.668Z,69.10
2023-03-06T05:27:32.501Z,68.96
2023-03-06T05:29:04.155Z,68.84
2023-03-06T05:30:36.752Z,69.01
2023-03-06T05:32:09.929Z,68.61
2023-03-06T05:33:41.656Z,68.44
2023-03-06T05:35:16.819Z,68.94
2023-03-06T05:36:48.462Z,68.97
2023-03-06T05:38:20.247Z,69.16
2023-03-06T05:39:53.453Z,68.63
2023-03-06T05:41:25.318Z,69.09
2023-03-06T05:42:56.897Z,69.40
2023-03-06T05:44:30.603Z,69.43
2023-03-06T05:46:02.945Z,69.63
2023-03-06T05:47:36.111Z,69.32
2023-03-06T05:49:07.861Z,69.22
2023-03-06T05:50:41.843Z,69.15
2023-03-06T05:52:13.787Z,69.03
2023-03-06T05:53:45.400Z,69.18
2023-03-06T05:55:19.506Z,69.26
2023-03-06T05:56:51.534Z,69.57
2023-03-06T05:58:23.186Z,69.85
2023-03-06T05:59:54.920Z,70.27
2023-03-06T06:01:28.453Z,70.36
2023-03-06T06:03:02.818Z,69.75
2023-03-06T06:04:34.676Z,69.17
2023-03-06T06:06:07.127Z,69.40
2023-03-06T06:07:39.108Z,68.79
2023-03-06T06:09:13.482Z,68.55
2023-03-06T06:10:45.500Z,68.57
2023-03-06T06:12:17.143Z,68.13
2023-03-06T06:13:49.446Z,68.25
2023-03-06T06:15:21.150Z,68.33
2023-03-06T06:16:53.278Z,68.30
2023-03-06T06:18:26.360Z,67.90
2023-03-06T06:19:57.992Z,67.56
2023-03-06T06:21:29.604Z,67.67
2023-03-06T06:23:01.289Z,67.82
2023-03-06T06:24:32.957Z,68.04
2023-03-06T06:26:07.936Z,68.08
2023-03-06T06:27:41.028Z,68.30
2023-03-06T06:29:13.330Z,68.09
2023-03-06T06:30:45.167Z,67.96
2023-03-06T06:32:16.881Z,67.97
2023-03-06T06:33:49.922Z,67.85
2023-03-06T06:35:21.938Z,67.74
2023-03-06T06:37:03.384Z,67.40
2023-03-06T06:38:44.368Z,67.44
2023-03-06T06:40:16.094Z,67.25
2023-03-06T06:42:00.081Z,67.76
2023-03-06T06:43:40.341Z,67.53
2023-03-06T06:45:12.648Z,68.32
2023-03-06T06:48:37.762Z,67.60
2023-03-06T06:50:13.195Z,67.88
2023-03-06T06:51:45.085Z,67.81
2023-03-06T06:53:17.199Z,67.81
2023-03-06T06:54:48.829Z,67.71
2023-03-06T06:56:20.517Z,68.08
2023-03-06T06:57:52.119Z,68.10
2023-03-06T06:59:23.950Z,68.11
2023-03-06T07:00:55.603Z,67.50
2023-03-06T07:02:27.323Z,67.28
2023-03-06T07:03:58.956Z,67.46
2023-03-06T07:05:32.439Z,66.95
2023-03-06T07:07:04.112Z,66.78
2023-03-06T07:08:37.083Z,66.62
2023-03-06T07:10:12.253Z,67.09
2023-03-06T07:11:44.014Z,66.64
2023-03-06T07:13:15.665Z,66.75
2023-03-06T07:14:48.397Z,67.16
2023-03-06T07:16:20.180Z,67.12
2023-03-06T07:17:51.843Z,66.67
2023-03-06T07:19:23.462Z,66.50
2023-03-06T07:20:56.840Z,66.47
2023-03-06T07:22:31.956Z,66.05
2023-03-06T07:24:08.020Z,65.60
2023-03-06T07:25:40.083Z,65.23
2023-03-06T07:27:12.243Z,65.77
2023-03-06T07:28:52.440Z,65.95
2023-03-06T07:30:24.659Z,66.06
2023-03-06T07:31:56.348Z,65.32
2023-03-06T07:33:28.341Z,65.10
2023-03-06T07:35:17.577Z,65.49
2023-03-06T07:36:52.393Z,65.79
2023-03-06T07:38:24.085Z,65.47
2023-03-06T07:39:55.835Z,65.42
2023-03-06T07:41:27.638Z,64.80
2023-03-06T07:43:16.921Z,64.49
2023-03-06T07:44:54.034Z,64.60
2023-03-06T07:46:25.617Z,65.00
2023-03-06T07:47:58.063Z,64.90
2023-03-06T07:49:29.776Z,64.34
2023-03-06T07:51:02.420Z,64.62
2023-03-06T07:52:35.495Z,64.21
2023-03-06T07:54:09.092Z,63.99
2023-03-06T07:55:41.747Z,64.25
2023-03-06T07:57:13.649Z,64.52
2023-03-06T07:58:45.824Z,65.02
2023-03-06T08:00:17.651Z,65.29
2023-03-06T08:01:49.525Z,65.10
2023-03-06T08:03:21.273Z,64.80
2023-03-06T08:04:53.597Z,65.21
2023-03-06T08:06:27.328Z,65.31
2023-03-06T08:08:02.005Z,65.29
2023-03-06T08:09:35.147Z,65.37
2023-03-06T08:11:07.252Z,65.25
2023-03-06T08:12:38.925Z,64.78
2023-03-06T08:14:10.761Z,65.16
2023-03-06T08:15:47.251Z,64.71
2023-03-06T08:17:18.943Z,64.63
2023-03-06T08:18:50.965Z,65.18
2023-03-06T08:20:22.838Z,64.54
2023-03-06T08:21:54.667Z,64.49
2023-03-06T08:23:27.988Z,63.70
2023-03-06T08:24:59.750Z,63.85
2023-03-06T08:26:34.448Z,63.86
2023-03-06T08:28:08.673Z,63.79
2023-03-06T08:29:40.323Z,63.44
2023-03-06T08:31:13.461Z,63.44
2023-03-06T08:32:45.173Z,63.67
2023-03-06T08:34:20.005Z,64.10
2023-03-06T08:35:52.354Z,63.73
2023-03-06T08:37:24.234Z,63.55
2023-03-06T08:38:57.662Z,63.20
2023-03-06T08:40:30.554Z,63.41
2023-03-06T08:42:02.260Z,63.66
2023-03-06T08:43:35.906Z,63.12
2023-03-06T08:45:11.235Z,63.03
2023-03-06T08:46:43.069Z,62.88
2023-03-06T08:48:14.901Z,63.48
2023-03-06T08:49:46.588Z,63.18
2023-03-06T08:51:18.797Z,63.43
2023-03-06T08:52:50.404Z,62.98
2023-03-06T08:54:24.216Z,62.79
2023-03-06T08:55:55.999Z,62.99
2023-03-06T08:57:27.812Z,63.47
2023-03-06T08:59:00.743Z,62.84
2023-03-06T09:00:32.871Z,62.39
2023-03-06T09:02:05.651Z,62.40
2023-03-06T09:03:37.541Z,63.17
2023-03-06T09:05:09.693Z,62.91
2023-03-06T09:06:45.190Z,62.58
2023-03-06T09:08:17.890Z,62.69
2023-03-06T09:09:51.219Z,63.15
2023-03-06T09:11:23.702Z,62.34
2023-03-06T09:12:55.500Z,61.60
2023-03-06T09:14:27.176Z,61.48
2023-03-06T09:16:04.572Z,61.60
2023-03-06T09:17:36.858Z,61.78
2023-03-06T09:19:09.070Z,61.65
2023-03-06T09:20:40.688Z,61.82
2023-03-06T09:22:12.458Z,61.95
2023-03-06T09:23:44.097Z,61.78
2023-03-06T09:25:20.475Z,61.82
2023-03-06T09:26:52.642Z,61.21
2023-03-06T09:28:24.909Z,62.34
2023-03-06T09:29:56.883Z,62.50
2023-03-06T09:31:28.696Z,61.50
2023-03-06T09:33:00.515Z,60.64
2023-03-06T09:34:32.163Z,61.20
2023-03-06T09:36:04.578Z,61.40
2023-03-06T09:37:36.631Z,61.19
2023-03-06T09:39:09.513Z,61.18
2023-03-06T09:40:53.081Z,61.12
2023-03-06T09:42:25.138Z,59.98
2023-03-06T09:44:04.891Z,60.36
2023-03-06T09:45:37.121Z,60.35
2023-03-06T09:47:20.333Z,60.44
2023-03-06T09:49:02.645Z,61.48
2023-03-06T09:50:38.846Z,63.90
2023-03-06T09:52:26.169Z,64.15
2023-03-06T09:54:05.267Z,65.34
2023-03-06T09:55:38.349Z,65.42
2023-03-06T09:57:17.333Z,65.58
2023-03-06T09:58:50.774Z,65.56
2023-03-06T10:00:25.111Z,65.17
2023-03-06T10:02:00.286Z,65.09
2023-03-06T10:03:36.734Z,64.94
2023-03-06T10:05:13.488Z,63.74
2023-03-06T10:06:48.488Z,64.33
2023-03-06T10:08:24.116Z,64.01
2023-03-06T10:09:58.207Z,63.36
2023-03-06T10:11:33.186Z,64.08
2023-03-06T10:13:16.641Z,63.03
2023-03-06T10:14:53.950Z,63.05
2023-03-06T10:16:26.842Z,63.41
2023-03-06T10:17:58.548Z,61.97
2023-03-06T10:19:33.269Z,62.95
2023-03-06T10:21:18.742Z,62.78
2023-03-06T10:23:01.056Z,63.28
2023-03-06T10:24:49.684Z,63.69
2023-03-06T10:26:24.324Z,64.14
2023-03-06T10:27:58.220Z,64.26
2023-03-06T10:29:35.860Z,64.55
2023-03-06T10:31:11.678Z,65.19
2023-03-06T10:32:49.205Z,65.18
2023-03-06T10:34:22.420Z,65.26
2023-03-06T10:35:55.475Z,64.57
2023-03-06T10:37:32.610Z,64.92
2023-03-06T10:39:10.990Z,64.64
2023-03-06T10:40:47.457Z,64.65
2023-03-06T10:42:19.387Z,64.26
2023-03-06T10:44:24.387Z,64.27
2023-03-06T10:45:57.939Z,64.04
2023-03-06T10:47:30.559Z,63.80
2023-03-06T10:49:03.036Z,64.03
2023-03-06T10:50:34.767Z,63.48
2023-03-06T10:52:18.774Z,63.13
2023-03-06T10:53:52.742Z,63.25
2023-03-06T10:55:26.376Z,63.48
2023-03-06T10:56:58.099Z,63.61
2023-03-06T10:58:31.748Z,63.24
2023-03-06T11:00:05.601Z,64.00
2023-03-06T11:01:39.620Z,63.75
2023-03-06T11:03:19.763Z,63.28
2023-03-06T11:04:52.530Z,63.63
2023-03-06T11:06:31.454Z,64.24
2023-03-06T11:08:04.168Z,63.21
2023-03-06T11:09:37.374Z,63.20
2023-03-06T11:11:11.124Z,64.12
2023-03-06T11:12:46.784Z,64.17
2023-03-06T11:14:19.415Z,64.28
2023-03-06T11:15:56.961Z,64.16
2023-03-06T11:17:32.214Z,64.35
2023-03-06T11:19:07.016Z,64.43
2023-03-06T11:20:51.063Z,64.82
2023-03-06T11:22:23.413Z,64.85
2023-03-06T11:23:57.792Z,64.97
2023-03-06T11:25:33.007Z,64.63
2023-03-06T11:27:13.580Z,64.79
2023-03-06T11:28:47.216Z,64.72
2023-03-06T11:30:20.156Z,65.29
2023-03-06T11:31:55.075Z,65.15
2023-03-06T11:33:30.901Z,65.04
2023-03-06T11:35:04.279Z,65.05
2023-03-06T11:36:38.620Z,64.79
2023-03-06T11:38:14.470Z,65.92
2023-03-06T11:39:49.571Z,65.01
2023-03-06T11:41:26.810Z,65.22
2023-03-06T11:43:07.321Z,65.46
2023-03-06T11:44:47.861Z,65.20
2023-03-06T11:46:22.855Z,65.82
2023-03-06T11:48:00.235Z,65.62
2023-03-06T11:49:40.137Z,65.67
2023-03-06T11:51:14.298Z,65.96
2023-03-06T11:52:52.509Z,65.95
2023-03-06T11:54:26.623Z,66.01
2023-03-06T11:55:59.963Z,65.65
2023-03-06T11:57:35.318Z,65.58
2023-03-06T11:59:14.432Z,65.52
2023-03-06T12:00:50.407Z,65.72
2023-03-06T12:02:30.878Z,66.07
2023-03-06T12:04:23.308Z,64.74
2023-03-06T12:06:01.162Z,63.88
2023-03-06T12:07:35.953Z,63.41
2023-03-06T12:09:18.991Z,63.02
2023-03-06T12:10:52.172Z,62.07
2023-03-06T12:12:53.972Z,60.75
2023-03-06T12:14:32.639Z,60.78
2023-03-06T12:16:17.149Z,60.38
2023-03-06T12:18:10.041Z,60.46
2023-03-06T12:19:46.898Z,60.54
2023-03-06T12:21:24.897Z,61.24
2023-03-06T12:23:15.064Z,60.77
2023-03-06T12:25:18.199Z,61.44
2023-03-06T12:27:00.572Z,61.57
2023-03-06T12:28:37.286Z,61.20
2023-03-06T12:30:35.701Z,60.33
2023-03-06T12:32:22.956Z,60.65
2023-03-06T12:34:02.581Z,61.38
2023-03-06T12:35:44.767Z,61.31
2023-03-06T12:37:21.628Z,60.51
2023-03-06T12:39:01.719Z,61.27
2023-03-06T12:40:44.164Z,61.05
2023-03-06T12:42:23.598Z,61.06
2023-03-06T12:44:06.641Z,60.63
2023-03-06T12:45:39.054Z,61.21
2023-03-06T12:47:12.432Z,61.30
2023-03-06T12:48:48.638Z,60.85
2023-03-06T12:50:22.770Z,60.50
2023-03-06T12:51:55.377Z,60.14
2023-03-06T12:53:29.841Z,59.61
2023-03-06T12:55:04.734Z,59.79
2023-03-06T12:56:36.558Z,59.24
2023-03-06T12:58:26.697Z,59.86
2023-03-06T12:59:58.529Z,59.91
2023-03-06T13:01:37.543Z,59.95
2023-03-06T13:03:16.424Z,58.88
2023-03-06T13:05:00.784Z,59.39
2023-03-06T13:06:50.792Z,59.69
2023-03-06T13:08:37.827Z,59.74
2023-03-06T13:10:15.467Z,60.27
2023-03-06T13:11:58.619Z,60.16
2023-03-06T13:13:31.848Z,60.10
2023-03-06T13:15:18.419Z,59.08
2023-03-06T13:16:50.448Z,58.86
2023-03-06T13:18:54.547Z,58.99
2023-03-06T13:20:43.049Z,58.88
2023-03-06T13:22:15.811Z,59.03
2023-03-06T13:23:53.513Z,60.00
2023-03-06T13:25:46.817Z,59.48
2023-03-06T13:27:41.378Z,59.87
2023-03-06T13:29:30.580Z,59.79
2023-03-06T13:31:02.571Z,60.66
2023-03-06T13:32:35.109Z,60.30
2023-03-06T13:34:29.722Z,59.97
2023-03-06T13:36:19.362Z,59.76
2023-03-06T13:37:52.868Z,58.70
2023-03-06T13:39:27.110Z,59.55
2023-03-06T13:41:13.848Z,60.20
2023-03-06T13:43:02.598Z,60.26
2023-03-06T13:44:43.748Z,59.34
2023-03-06T13:46:24.690Z,58.47
2023-03-06T13:49:49.510Z,59.25
2023-03-06T13:51:26.415Z,59.64
2023-03-06T13:53:13.013Z,58.99
2023-03-06T13:54:51.942Z,59.89
2023-03-06T13:56:41.945Z,59.47
2023-03-06T13:58:29.787Z,58.99
2023-03-06T14:00:15.115Z,59.62
2023-03-06T14:01:52.755Z,57.95
2023-03-06T14:03:36.794Z,57.13
2023-03-06T14:05:12.056Z,57.12
2023-03-06T14:06:52.971Z,56.27
2023-03-06T14:08:26.090Z,55.68
2023-03-06T14:10:01.212Z,53.89
2023-03-06T14:11:33.472Z,53.43
2023-03-06T14:13:06.612Z,53.28
2023-03-06T14:14:41.750Z,53.30
2023-03-06T14:16:18.508Z,53.97
2023-03-06T14:17:56.423Z,53.69
2023-03-06T14:19:31.176Z,53.47
2023-03-06T14:21:04.641Z,52.84
2023-03-06T14:22:38.133Z,51.94
2023-03-06T14:24:14.549Z,51.84
2023-03-06T14:25:47.710Z,51.70
2023-03-06T14:27:19.339Z,51.44
2023-03-06T14:28:54.974Z,52.43
2023-03-06T14:30:26.867Z,52.53
2023-03-06T14:31:59.552Z,52.43
2023-03-06T14:33:33.555Z,52.11
2023-03-06T14:35:05.648Z,52.52
2023-03-06T14:36:45.730Z,52.60
2023-03-06T14:38:20.158Z,51.91
2023-03-06T14:39:52.353Z,52.00
2023-03-06T14:41:25.788Z,51.27
2023-03-06T14:43:10.235Z,52.06
2023-03-06T14:44:42.387Z,51.01
2023-03-06T14:46:18.688Z,52.57
2023-03-06T14:47:52.384Z,52.42
2023-03-06T14:49:25.371Z,53.00
2023-03-06T14:51:02.487Z,52.93
2023-03-06T14:52:34.477Z,52.97
2023-03-06T14:54:12.937Z,53.02
2023-03-06T14:55:48.642Z,53.60
2023-03-06T14:57:22.965Z,53.43
2023-03-06T14:58:56.379Z,53.52
2023-03-06T15:00:32.380Z,54.35
2023-03-06T15:02:05.605Z,54.88
2023-03-06T15:03:42.744Z,54.79
2023-03-06T15:05:19.717Z,56.07
2023-03-06T15:06:51.757Z,55.93
2023-03-06T15:08:27.664Z,55.70
2023-03-06T15:10:01.139Z,56.21
2023-03-06T15:11:52.269Z,56.79
2023-03-06T15:13:24.883Z,55.92
2023-03-06T15:14:57.877Z,55.25
2023-03-06T15:16:32.768Z,55.26
2023-03-06T15:18:19.305Z,55.65
2023-03-06T15:19:51.900Z,55.82
2023-03-06T15:21:24.662Z,55.92
2023-03-06T15:22:56.212Z,55.00
2023-03-06T15:24:32.373Z,55.45
2023-03-06T15:26:18.518Z,55.27
2023-03-06T15:27:51.584Z,55.65
2023-03-06T15:29:24.958Z,55.75
2023-03-06T15:31:22.101Z,56.29
2023-03-06T15:33:08.600Z,56.51
2023-03-06T15:34:40.364Z,55.98
2023-03-06T15:36:19.683Z,56.26
2023-03-06T15:37:51.708Z,56.57
2023-03-06T15:39:27.743Z,57.22
2023-03-06T15:41:00.759Z,57.14
2023-03-06T15:42:36.017Z,57.04
2023-03-06T15:44:11.431Z,58.02
2023-03-06T15:45:49.514Z,58.17
2023-03-06T15:47:31.975Z,58.43
2023-03-06T15:49:13.655Z,58.70
2023-03-06T15:50:45.296Z,58.29
2023-03-06T15:52:20.694Z,59.06
2023-03-06T15:53:55.016Z,59.64
2023-03-06T15:55:26.955Z,59.18
2023-03-06T15:56:59.356Z,59.29
2023-03-06T15:58:35.126Z,58.86
2023-03-06T16:00:26.386Z,58.33
2023-03-06T16:02:00.296Z,58.32
2023-03-06T16:03:32.211Z,57.52
2023-03-06T16:05:10.430Z,57.23
2023-03-06T16:06:42.344Z,57.24
2023-03-06T16:08:15.002Z,58.09
2023-03-06T16:09:47.422Z,58.18
2023-03-06T16:11:26.026Z,57.12
2023-03-06T16:13:02.558Z,56.17
2023-03-06T16:14:44.768Z,57.09
2023-03-06T16:16:23.043Z,57.53
2023-03-06T16:17:54.911Z,57.35
2023-03-06T16:19:27.899Z,57.76
2023-03-06T16:21:02.075Z,57.73
2023-03-06T16:22:33.728Z,57.31
2023-03-06T16:24:05.438Z,57.15
2023-03-06T16:25:38.261Z,57.47
2023-03-06T16:27:15.224Z,57.18
2023-03-06T16:28:47.476Z,57.25
2023-03-06T16:30:21.522Z,57.49
2023-03-06T16:31:55.220Z,57.53
2023-03-06T16:33:26.844Z,57.96
2023-03-06T16:34:58.450Z,58.66
2023-03-06T16:36:32.364Z,58.10
2023-03-06T16:38:04.225Z,58.42
2023-03-06T16:39:35.870Z,57.80
2023-03-06T16:41:07.500Z,58.31
2023-03-06T16:42:39.287Z,58.45
2023-03-06T16:44:11.468Z,58.93
2023-03-06T16:45:45.520Z,58.99
2023-03-06T16:47:17.385Z,59.51
2023-03-06T16:48:49.300Z,58.57
2023-03-06T16:50:24.744Z,59.75
2023-03-06T16:51:56.396Z,59.75
2023-03-06T16:53:28.551Z,59.89
2023-03-06T16:55:00.142Z,59.61
2023-03-06T16:56:31.696Z,59.80
2023-03-06T16:58:03.324Z,59.73
2023-03-06T16:59:35.156Z,60.25
2023-03-06T17:01:09.707Z,60.09
2023-03-06T17:02:41.945Z,60.46
2023-03-06T17:04:13.588Z,60.52
2023-03-06T17:05:45.411Z,60.51
2023-03-06T17:07:17.085Z,60.53
2023-03-06T17:08:49.249Z,61.20
2023-03-06T17:10:23.231Z,61.18
2023-03-06T17:11:54.894Z,61.13
2023-03-06T17:13:26.553Z,61.16
2023-03-06T17:14:58.176Z,61.73
2023-03-06T17:16:31.344Z,61.23
2023-03-06T17:18:02.927Z,61.20
2023-03-06T17:19:34.545Z,61.79
2023-03-06T17:21:07.391Z,62.01
2023-03-06T17:22:39.156Z,61.45
2023-03-06T17:24:10.855Z,61.74
2023-03-06T17:25:42.528Z,61.53
2023-03-06T17:27:14.290Z,61.58
2023-03-06T17:28:47.769Z,61.13
2023-03-06T17:30:19.413Z,61.63
2023-03-06T17:31:52.444Z,61.37
2023-03-06T17:33:24.018Z,61.76
2023-03-06T17:34:55.942Z,61.35
2023-03-06T17:36:28.036Z,61.14
2023-03-06T17:37:59.824Z,61.12
2023-03-06T17:39:32.498Z,61.34
2023-03-06T17:41:04.689Z,60.92
2023-03-06T17:42:36.792Z,61.16
2023-03-06T17:44:12.070Z,61.33
2023-03-06T17:45:43.805Z,61.42
2023-03-06T17:47:16.991Z,61.00
2023-03-06T17:48:48.592Z,61.52
2023-03-06T17:50:20.971Z,61.50
2023-03-06T17:51:52.753Z,61.41
2023-03-06T17:53:24.599Z,61.83
2023-03-06T17:54:56.621Z,61.03
2023-03-06T17:56:28.321Z,61.27
2023-03-06T17:57:59.995Z,61.10
2023-03-06T17:59:34.176Z,60.84
2023-03-06T18:01:10.884Z,60.73
2023-03-06T18:02:45.748Z,61.32
2023-03-06T18:04:17.781Z,61.28
2023-03-06T18:05:58.315Z,61.14
2023-03-06T18:07:30.046Z,61.26
2023-03-06T18:09:01.747Z,61.13
2023-03-06T18:10:33.450Z,60.76
2023-03-06T18:12:05.155Z,60.55
2023-03-06T18:13:38.064Z,60.88
2023-03-06T18:15:10.094Z,60.65
2023-03-06T18:16:41.699Z,59.92
2023-03-06T18:18:15.051Z,60.01
2023-03-06T18:19:46.985Z,59.56
2023-03-06T18:21:19.167Z,59.80
2023-03-06T18:22:52.007Z,59.80
2023-03-06T18:24:23.797Z,59.63
2023-03-06T18:26:05.302Z,59.84
2023-03-06T18:27:37.363Z,59.34
2023-03-06T18:29:09.020Z,59.80
2023-03-06T18:30:42.288Z,59.27
2023-03-06T18:32:14.198Z,59.02
2023-03-06T18:33:49.283Z,58.32
2023-03-06T18:35:21.146Z,58.38
2023-03-06T18:36:53.204Z,58.66
2023-03-06T18:38:24.790Z,57.66
2023-03-06T18:39:56.749Z,57.86
2023-03-06T18:41:28.393Z,57.96
2023-03-06T18:43:00.098Z,57.24
2023-03-06T18:44:31.693Z,57.35
2023-03-06T18:46:03.623Z,57.18
2023-03-06T18:47:35.273Z,56.88
2023-03-06T18:49:08.967Z,57.27
2023-03-06T18:50:40.592Z,56.95
2023-03-06T18:52:13.436Z,57.42
2023-03-06T18:53:45.228Z,56.87
2023-03-06T18:55:17.047Z,56.90
2023-03-06T18:56:48.756Z,56.50
2023-03-06T18:58:21.504Z,56.96
2023-03-06T18:59:55.250Z,56.83
2023-03-06T19:01:30.661Z,56.83
2023-03-06T19:03:02.421Z,57.00
2023-03-06T19:04:36.217Z,56.99
2023-03-06T19:06:10.201Z,56.67
2023-03-06T19:07:41.872Z,56.62
2023-03-06T19:09:13.584Z,56.22
2023-03-06T19:10:50.323Z,56.24
2023-03-06T19:12:22.010Z,55.75
2023-03-06T19:13:53.782Z,56.18
2023-03-06T19:15:37.591Z,55.86
2023-03-06T19:17:09.241Z,55.92
2023-03-06T19:18:40.839Z,55.90
2023-03-06T19:20:13.912Z,55.99
2023-03-06T19:21:45.737Z,55.88
2023-03-06T19:23:17.517Z,56.33
2023-03-06T19:24:50.730Z,56.00
2023-03-06T19:26:22.427Z,55.78
2023-03-06T19:27:54.000Z,56.06
2023-03-06T19:29:25.722Z,55.65
2023-03-06T19:30:57.743Z,56.22
2023-03-06T19:32:30.237Z,56.09
2023-03-06T19:34:01.907Z,56.10
2023-03-06T19:35:44.043Z,56.14
2023-03-06T19:37:18.704Z,56.08
2023-03-06T19:38:53.353Z,56.06
2023-03-06T19:40:24.920Z,56.09
2023-03-06T19:42:15.004Z,55.61
2023-03-06T19:43:49.354Z,55.63
2023-03-06T19:45:21.209Z,56.25
2023-03-06T19:46:52.998Z,55.72
2023-03-06T19:48:24.692Z,54.96
2023-03-06T19:50:05.331Z,54.92
2023-03-06T19:51:38.808Z,54.70
2023-03-06T19:53:11.254Z,54.39
2023-03-06T19:54:44.296Z,54.48
2023-03-06T19:56:18.846Z,54.40
2023-03-06T19:57:50.518Z,54.14
2023-03-06T19:59:22.433Z,54.21
2023-03-06T20:00:54.349Z,54.20
2023-03-06T20:02:27.290Z,53.83
2023-03-06T20:04:00.228Z,53.70
2023-03-06T20:05:32.689Z,53.91
2023-03-06T20:07:06.450Z,54.17
2023-03-06T20:08:38.317Z,54.20
2023-03-06T20:10:10.980Z,53.94
2023-03-06T20:11:42.630Z,54.11
2023-03-06T20:13:17.520Z,54.10
2023-03-06T20:14:49.162Z,54.37
2023-03-06T20:16:21.039Z,54.34
2023-03-06T20:17:52.939Z,54.29
2023-03-06T20:19:27.556Z,54.00
2023-03-06T20:20:59.644Z,54.07